Time;durP1;ratioP1;P1;durP2;ratioP2;P2;SDS_P1;SDS_P2;PMS_P1;PMS_P2;Temp;Humidity;BMP_temperature;BMP_pressure;BME280_temperature;BME280_humidity;BME280_pressure;Samples;Min_cycle;Max_cycle;Signal;HPM_P1;HPM_P2
2022/02/11 00:07:11;;;;;;;18.15;11.75;;;;;;;3.75;62.98;102051.84;2089888;28;20169;-69
2022/02/11 00:08:12;;;;;;;18.20;11.57;;;;;;;3.82;63.19;102073.97;2090080;28;20635;-69
2022/02/11 00:09:12;;;;;;;15.67;11.90;;;;;;;3.42;63.86;102002.81;2089811;28;20184;-69
2022/02/11 00:10:13;;;;;;;14.77;11.13;;;;;;;3.72;64.97;102069.81;2089788;28;20180;-69
2022/02/11 00:11:15;;;;;;;14.43;10.97;;;;;;;3.65;64.86;102055.88;2088951;28;20182;-69
2022/02/11 00:12:16;;;;;;;17.33;12.23;;;;;;;3.72;64.97;102067.06;2089421;28;20187;-69
2022/02/11 00:13:16;;;;;;;19.17;13.50;;;;;;;3.75;65.07;102069.09;2089609;28;20289;-69
2022/02/11 00:14:17;;;;;;;19.67;13.50;;;;;;;3.68;65.10;102055.19;2090243;28;20174;-69
2022/02/11 00:16:35;;;;;;;14.70;11.88;;;;;;;3.78;62.43;102076.63;2090162;28;20397;-69
2022/02/11 00:17:36;;;;;;;15.63;12.10;;;;;;;3.78;62.68;102084.03;2089840;28;20509;-69
2022/02/11 00:18:36;;;;;;;15.60;12.67;;;;;;;3.77;62.16;102085.19;2090240;28;20183;-69
2022/02/11 00:19:37;;;;;;;16.67;11.60;;;;;;;3.76;62.14;102087.16;2089500;28;20209;-69
2022/02/11 00:20:39;;;;;;;16.43;12.13;;;;;;;3.72;61.94;102082.72;2090115;28;20652;-69
2022/02/11 00:21:39;;;;;;;15.07;11.70;;;;;;;3.70;62.89;102088.53;2088809;28;20670;-69
2022/02/11 00:22:40;;;;;;;17.93;12.73;;;;;;;3.68;63.58;102087.28;2089219;28;20636;-69
2022/02/11 00:23:40;;;;;;;16.87;12.80;;;;;;;3.62;63.93;102075.81;2089481;28;20264;-69
2022/02/11 00:24:41;;;;;;;19.17;12.70;;;;;;;3.70;63.48;102093.25;2089854;28;20262;-69
2022/02/11 00:25:48;;;;;;;19.30;13.33;;;;;;;3.72;63.72;102090.94;2089938;28;20187;-69
2022/02/11 00:27:06;;;;;;;20.65;14.13;;;;;;;3.71;64.39;102090.16;2089910;28;20166;-69
2022/02/11 00:31:35;;;;;;;15.13;12.00;;;;;;;3.69;60.25;102091.66;2081215;28;20621;-69
2022/02/11 00:32:24;;;;;;;16.77;11.50;;;;;;;3.59;60.05;102090.19;2081598;28;20217;-69
2022/02/11 00:33:27;;;;;;;17.38;11.52;;;;;;;3.45;60.37;102078.06;2081040;28;20553;-69
2022/02/11 00:34:41;;;;;;;17.90;12.90;;;;;;;2.63;60.69;101967.28;2081818;28;20563;-69
2022/02/11 00:35:51;;;;;;;18.15;12.48;;;;;;;3.44;60.25;102095.66;2081768;28;20166;-69
2022/02/11 00:37:08;;;;;;;18.27;12.30;;;;;;;3.41;60.32;102099.88;2081536;28;20254;-69
2022/02/11 00:38:14;;;;;;;16.92;12.93;;;;;;;3.37;61.19;102090.75;2081656;28;20166;-69
2022/02/11 01:03:33;;;;;;;22.80;14.53;;;;;;;2.85;61.18;102086.44;2080868;28;20173;-69
2022/02/11 01:04:33;;;;;;;17.42;12.57;;;;;;;2.72;61.17;102066.50;2081456;28;20168;-69
2022/02/11 01:05:34;;;;;;;22.17;13.63;;;;;;;2.08;61.57;101955.44;2081352;28;20205;-69
2022/02/11 01:06:35;;;;;;;20.37;14.03;;;;;;;2.84;62.43;102082.13;2081412;28;20184;-69
2022/02/11 01:07:35;;;;;;;24.93;14.13;;;;;;;2.86;62.04;102080.63;2081454;28;20235;-69
2022/02/11 01:08:39;;;;;;;20.40;13.67;;;;;;;2.84;60.56;102084.84;2081333;28;20182;-69
2022/02/11 01:09:41;;;;;;;23.23;13.88;;;;;;;2.57;61.58;102033.59;2080851;28;20723;-69
2022/02/11 01:10:43;;;;;;;18.83;13.65;;;;;;;2.81;61.66;102078.13;2081361;28;20194;-69
2022/02/11 01:11:49;;;;;;;18.58;13.93;;;;;;;2.76;61.07;102077.56;2080750;28;20179;-69
2022/02/11 01:12:50;;;;;;;19.75;14.25;;;;;;;1.99;60.64;101958.28;2080503;28;20172;-69
2022/02/11 01:13:51;;;;;;;21.77;13.83;;;;;;;2.83;61.15;102077.78;2081213;28;20179;-69
2022/02/11 01:14:53;;;;;;;18.97;13.87;;;;;;;2.83;60.47;102078.56;2081241;28;20181;-69
2022/02/11 01:16:02;;;;;;;19.70;13.30;;;;;;;2.73;60.87;102083.72;2081181;28;20170;-69
2022/02/11 01:18:15;;;;;;;26.63;13.13;;;;;;;2.68;60.00;102079.28;2081635;28;20256;-69
2022/02/11 01:19:31;;;;;;;18.48;12.70;;;;;;;2.68;60.58;102082.00;2080908;28;20252;-69
2022/02/11 01:20:51;;;;;;;22.27;14.88;;;;;;;2.72;63.00;102085.66;2080538;28;20259;-69
2022/02/11 01:22:06;;;;;;;21.02;14.80;;;;;;;2.73;62.25;102081.00;2080543;28;20163;-69
2022/02/11 01:27:16;;;;;;;20.67;15.18;;;;;;;2.63;61.64;102065.03;2081278;28;20189;-69
2022/02/11 01:34:15;;;;;;;21.15;16.58;;;;;;;2.37;65.56;102076.31;2088913;28;20266;-69
2022/02/11 01:44:11;;;;;;;24.05;16.20;;;;;;;2.56;64.55;102065.59;2080714;28;20176;-69
2022/02/11 01:45:36;;;;;;;21.38;14.65;;;;;;;2.58;64.90;102071.53;2080988;28;20193;-69
2022/02/11 01:51:41;;;;;;;23.13;16.23;;;;;;;2.53;65.73;102058.09;2088356;28;20154;-69
2022/02/11 01:57:09;;;;;;;26.90;20.95;;;;;;;2.27;67.15;102015.81;2089151;28;20209;-69
2022/02/11 02:12:47;;;;;;;28.50;22.05;;;;;;;2.72;65.81;102066.50;2088163;28;20667;-69
2022/02/11 02:14:56;;;;;;;32.40;23.92;;;;;;;2.64;66.36;102039.25;2089356;28;20157;-69
2022/02/11 02:28:28;;;;;;;32.42;24.42;;;;;;;2.39;67.41;102000.19;2089385;28;20161;-69
2022/02/11 02:29:52;;;;;;;30.65;23.73;;;;;;;2.85;66.99;102056.31;2088784;28;20272;-69
2022/02/11 02:36:21;;;;;;;30.90;23.35;;;;;;;2.81;66.52;102077.31;2089161;28;20594;-69
2022/02/11 02:50:12;;;;;;;30.88;22.92;;;;;;;2.58;67.45;102060.56;2089157;28;20170;-69
2022/02/11 02:57:21;;;;;;;28.13;20.95;;;;;;;2.03;67.98;101972.88;2084496;28;20196;-69
2022/02/11 02:58:27;;;;;;;28.90;22.13;;;;;;;2.19;67.28;101994.84;2089006;28;20165;-69
2022/02/11 03:00:35;;;;;;;26.65;20.60;;;;;;;2.64;67.05;102055.69;2088105;28;20188;-69
2022/02/11 03:01:29;;;;;;;27.05;20.00;;;;;;;2.19;66.38;101978.44;2087034;28;20263;-69
2022/02/11 03:17:31;;;;;;;24.83;19.80;;;;;;;2.20;67.39;101994.50;2088884;28;20170;-69
2022/02/11 03:35:20;;;;;;;25.48;18.05;;;;;;;2.48;66.67;102080.22;2090375;28;20161;-69
2022/02/11 03:51:40;;;;;;;23.58;17.25;;;;;;;2.53;66.57;102071.78;2081083;28;20175;-69
2022/02/11 03:52:53;;;;;;;25.67;18.08;;;;;;;2.53;66.28;102074.53;2083584;28;20204;-69
2022/02/11 03:54:29;;;;;;;23.30;17.45;;;;;;;2.51;64.88;102068.59;2081572;28;20219;-69
2022/02/11 04:08:36;;;;;;;26.65;17.30;;;;;;;2.36;63.68;102074.75;2082001;28;20644;-69
2022/02/11 04:27:30;;;;;;;23.98;17.33;;;;;;;1.00;63.66;101887.03;2081745;28;20225;-69
2022/02/11 04:52:35;;;;;;;22.50;16.55;;;;;;;2.24;64.52;102085.69;2081789;28;20230;-69
2022/02/11 04:55:53;;;;;;;19.55;14.70;;;;;;;2.21;65.02;101970.69;2081682;28;20240;-69
2022/02/11 04:56:54;;;;;;;18.67;14.60;;;;;;;3.07;65.61;102077.72;2081390;28;20575;-69
2022/02/11 05:00:33;;;;;;;14.75;11.25;;;;;;;3.23;66.58;102075.88;2081576;28;20170;-69
2022/02/11 05:01:33;;;;;;;18.57;12.83;;;;;;;3.28;66.77;102078.34;2080446;28;20177;-69
2022/02/11 05:02:35;;;;;;;14.47;11.90;;;;;;;3.31;67.10;102070.22;2080662;28;20196;-69
2022/02/11 05:03:36;;;;;;;16.17;12.27;;;;;;;3.43;66.80;102085.81;2081085;28;20170;-69
2022/02/11 05:04:36;;;;;;;17.83;13.27;;;;;;;3.48;66.21;102078.16;2080710;28;20185;-69
2022/02/11 05:05:49;;;;;;;18.37;13.47;;;;;;;3.53;67.05;102088.03;2080931;28;20239;-69
2022/02/11 05:06:49;;;;;;;16.58;12.35;;;;;;;3.58;66.74;102082.31;2081317;28;20241;-69
2022/02/11 05:07:51;;;;;;;16.47;13.03;;;;;;;3.65;67.22;102082.53;2080862;28;20189;-69
2022/02/11 05:08:51;;;;;;;16.63;12.50;;;;;;;3.72;67.18;102091.75;2080677;28;20615;-67
2022/02/11 05:09:52;;;;;;;17.00;12.23;;;;;;;3.78;67.50;102081.28;2081054;28;20184;-69
2022/02/11 05:10:54;;;;;;;19.30;13.87;;;;;;;3.81;67.57;102089.66;2080612;28;20328;-69
2022/02/11 05:11:54;;;;;;;14.73;12.48;;;;;;;3.88;67.39;102081.59;2081005;28;20722;-69
2022/02/11 05:12:55;;;;;;;15.17;11.17;;;;;;;3.48;68.52;102014.28;2080434;28;20565;-69
2022/02/11 05:13:55;;;;;;;17.50;12.30;;;;;;;3.98;68.41;102083.81;2081443;28;20181;-69
2022/02/11 05:14:56;;;;;;;17.07;13.40;;;;;;;4.07;68.80;102089.94;2081263;28;20181;-68
2022/02/11 05:15:56;;;;;;;16.90;13.00;;;;;;;4.06;68.19;102082.06;2084023;28;20212;-69
2022/02/11 05:16:57;;;;;;;20.10;14.23;;;;;;;4.09;66.66;102073.09;2080011;28;20188;-69
2022/02/11 05:18:00;;;;;;;17.60;13.27;;;;;;;4.21;65.56;102086.75;2085978;28;20205;-69
2022/02/11 05:19:00;;;;;;;17.55;13.60;;;;;;;4.23;65.95;102085.25;2085209;28;20683;-70
2022/02/11 05:20:01;;;;;;;17.73;13.90;;;;;;;4.34;65.19;102085.50;2080946;28;20563;-71
2022/02/11 05:21:01;;;;;;;18.17;13.73;;;;;;;4.36;64.69;102089.47;2079802;28;20282;-71
2022/02/11 05:22:02;;;;;;;19.17;13.90;;;;;;;4.44;65.91;102090.44;2081167;28;20716;-71
2022/02/11 05:23:10;;;;;;;18.53;13.93;;;;;;;4.02;65.55;102013.38;2088275;28;20181;-74
2022/02/11 05:24:10;;;;;;;19.17;13.48;;;;;;;4.48;65.09;102097.63;2086164;28;20670;-75
2022/02/11 05:25:11;;;;;;;18.60;13.77;;;;;;;4.55;64.24;102095.03;2089124;28;20533;-69
2022/02/11 05:26:12;;;;;;;18.53;13.83;;;;;;;3.89;64.01;102005.59;2088260;28;20238;-72
2022/02/11 05:27:12;;;;;;;16.90;13.33;;;;;;;4.60;64.23;102094.78;2082392;28;20185;-71
2022/02/11 05:28:13;;;;;;;18.47;13.27;;;;;;;4.64;64.39;102100.34;2081573;28;20572;-71
2022/02/11 05:29:14;;;;;;;18.52;13.10;;;;;;;4.70;64.00;102096.16;2081407;28;20261;-71
2022/02/11 05:30:15;;;;;;;15.17;9.10;;;;;;;4.85;64.34;102101.63;2079536;28;20204;-71
2022/02/11 05:31:15;;;;;;;15.43;11.00;;;;;;;4.92;62.70;102096.28;2085386;28;20193;-70
2022/02/11 05:32:16;;;;;;;17.53;12.37;;;;;;;4.94;62.80;102102.25;2086041;28;20200;-71
2022/02/11 05:33:16;;;;;;;15.47;10.90;;;;;;;4.94;62.46;102095.94;2080280;28;20236;-70
2022/02/11 05:34:17;;;;;;;14.67;10.13;;;;;;;4.97;62.36;102096.00;2080949;28;20536;-71
2022/02/11 05:35:19;;;;;;;14.27;11.20;;;;;;;5.10;62.35;102107.69;2080666;28;20801;-71
2022/02/11 05:36:19;;;;;;;14.43;9.82;;;;;;;5.12;62.32;102108.13;2080926;28;20170;-71
2022/02/11 05:37:20;;;;;;;13.87;10.17;;;;;;;5.19;63.13;102109.06;2080690;28;20235;-71
2022/02/11 05:38:21;;;;;;;14.53;10.40;;;;;;;5.09;62.77;102084.91;2086998;28;20384;-70
2022/02/11 05:39:21;;;;;;;14.03;9.80;;;;;;;4.72;62.15;102028.75;2089245;28;20183;-71
2022/02/11 05:40:22;;;;;;;14.00;9.77;;;;;;;5.31;62.88;102114.44;2088920;28;20188;-69
2022/02/11 05:41:23;;;;;;;11.73;8.73;;;;;;;5.35;63.04;102118.06;2087566;28;20186;-71
2022/02/11 05:42:23;;;;;;;14.33;10.93;;;;;;;5.44;62.76;102115.09;2082736;28;20188;-70
2022/02/11 05:43:24;;;;;;;10.67;7.97;;;;;;;5.51;62.66;102123.47;2079695;28;20194;-70
2022/02/11 05:44:25;;;;;;;10.77;8.00;;;;;;;5.54;63.14;102118.03;2084323;28;20272;-71
2022/02/11 05:45:25;;;;;;;13.37;8.47;;;;;;;4.86;62.60;102015.34;2087206;28;20752;-72
2022/02/11 05:46:28;;;;;;;10.93;8.70;;;;;;;5.47;63.11;102098.66;2089354;28;20363;-72
2022/02/11 05:47:28;;;;;;;13.85;9.30;;;;;;;5.73;62.07;102122.72;2085941;28;20187;-70
2022/02/11 05:48:29;;;;;;;12.97;9.37;;;;;;;5.76;62.38;102124.78;2082184;28;20237;-72
2022/02/11 05:49:29;;;;;;;13.30;9.67;;;;;;;5.77;62.11;102105.16;2089001;28;20177;-72
2022/02/11 05:50:30;;;;;;;12.77;8.63;;;;;;;5.89;62.25;102123.50;2081312;28;20196;-70
2022/02/11 05:51:31;;;;;;;9.53;6.97;;;;;;;5.94;61.96;102129.47;2087445;28;20218;-71
2022/02/11 05:52:33;;;;;;;12.47;7.77;;;;;;;6.00;61.97;102133.53;2088844;28;20179;-70
2022/02/11 05:53:34;;;;;;;13.52;9.23;;;;;;;5.98;61.69;102099.28;2084620;28;20569;-71
2022/02/11 05:54:34;;;;;;;9.30;7.87;;;;;;;6.03;61.40;102104.47;2085921;28;20183;-68
2022/02/11 05:55:35;;;;;;;14.07;8.00;;;;;;;6.24;61.47;102132.38;2087902;28;20175;-68
2022/02/11 05:56:35;;;;;;;13.63;9.07;;;;;;;6.30;60.24;102120.69;2085722;28;20244;-68
2022/02/11 05:57:36;;;;;;;13.80;9.63;;;;;;;6.36;60.54;102123.94;2078058;28;20203;-69
2022/02/11 05:58:38;;;;;;;10.03;7.70;;;;;;;6.39;60.60;102123.19;2080941;28;20203;-69
2022/02/11 05:59:38;;;;;;;11.98;9.18;;;;;;;6.09;60.32;102061.72;2087304;28;20190;-68
2022/02/11 06:00:39;;;;;;;9.97;6.97;;;;;;;6.58;60.54;102120.38;2087529;28;20178;-68
2022/02/11 06:01:39;;;;;;;8.43;6.30;;;;;;;6.66;59.92;102127.59;2084979;28;20320;-68
2022/02/11 06:02:46;;;;;;;9.93;6.57;;;;;;;6.76;59.42;102125.00;2085390;28;20547;-69
2022/02/11 06:03:50;;;;;;;10.73;6.85;;;;;;;6.79;59.41;102132.53;2079766;28;20195;-68
2022/02/11 06:04:50;;;;;;;12.32;9.25;;;;;;;6.51;58.72;102067.94;2081846;28;20199;-68
2022/02/11 06:05:51;;;;;;;10.87;8.20;;;;;;;6.94;59.05;102126.06;2085982;28;20188;-67
2022/02/11 06:06:52;;;;;;;11.03;7.60;;;;;;;6.07;58.74;101998.00;2081927;28;20192;-67
2022/02/11 06:07:55;;;;;;;7.68;5.85;;;;;;;7.07;60.17;102129.41;2085234;28;20226;-67
2022/02/11 06:08:56;;;;;;;8.50;6.50;;;;;;;7.13;59.95;102133.44;2080885;28;20278;-67
2022/02/11 06:09:58;;;;;;;8.30;6.13;;;;;;;7.17;60.20;102135.06;2080532;28;20185;-67
2022/02/11 06:10:58;;;;;;;9.90;6.57;;;;;;;7.16;60.35;102130.72;2088129;28;20733;-67
2022/02/11 06:11:59;;;;;;;8.83;6.37;;;;;;;7.22;60.21;102131.19;2087273;28;20498;-67
2022/02/11 06:13:00;;;;;;;8.67;6.20;;;;;;;6.81;60.27;102055.78;2087947;28;20187;-67
2022/02/11 06:14:00;;;;;;;9.90;6.67;;;;;;;7.41;59.96;102131.84;2087270;28;20170;-67
2022/02/11 06:15:01;;;;;;;8.77;6.20;;;;;;;7.38;60.51;102127.06;2087231;28;20424;-67
2022/02/11 06:16:02;;;;;;;9.80;6.50;;;;;;;7.50;59.95;102137.06;2087768;28;20312;-67
2022/02/11 06:17:03;;;;;;;9.53;5.73;;;;;;;7.67;59.50;102133.72;2087087;28;20197;-67
2022/02/11 06:18:03;;;;;;;9.60;6.53;;;;;;;6.94;59.42;102002.06;2088283;28;20183;-67
2022/02/11 06:19:04;;;;;;;8.03;5.70;;;;;;;7.97;59.13;102137.22;2088512;28;20189;-67
2022/02/11 06:20:07;;;;;;;8.77;6.07;;;;;;;8.06;58.86;102140.47;2087167;28;20673;-67
2022/02/11 06:21:07;;;;;;;7.30;5.63;;;;;;;8.00;58.78;102120.69;2081880;28;20188;-67
2022/02/11 06:22:08;;;;;;;8.13;5.63;;;;;;;8.21;58.01;102139.50;2087161;28;20270;-67
2022/02/11 06:23:09;;;;;;;8.00;5.93;;;;;;;8.21;58.07;102131.97;2088286;28;20345;-67
2022/02/11 06:24:09;;;;;;;9.57;5.80;;;;;;;7.56;57.96;102009.47;2088102;28;20179;-67
2022/02/11 06:25:11;;;;;;;9.23;5.70;;;;;;;8.35;57.85;102136.88;2087311;28;20759;-69
2022/02/11 06:26:12;;;;;;;7.45;5.88;;;;;;;8.31;57.45;102120.25;2086944;28;20224;-68
2022/02/11 06:27:12;;;;;;;7.97;5.33;;;;;;;8.22;57.09;102086.63;2088092;28;20213;-68
2022/02/11 06:28:14;;;;;;;7.80;5.40;;;;;;;8.64;56.40;102133.16;2088468;28;20251;-67
2022/02/11 06:29:15;;;;;;;7.55;5.75;;;;;;;8.80;55.93;102140.00;2088536;28;20187;-67
2022/02/11 06:30:16;;;;;;;8.27;5.70;;;;;;;8.79;56.33;102138.41;2088089;28;20218;-69
2022/02/11 06:31:17;;;;;;;8.00;5.73;;;;;;;8.87;55.99;102145.56;2087304;28;20173;-67
2022/02/11 06:32:18;;;;;;;8.93;5.82;;;;;;;8.96;55.91;102142.50;2087995;28;20191;-66
2022/02/11 06:33:19;;;;;;;7.67;6.20;;;;;;;9.00;55.69;102149.63;2087744;28;20190;-68
2022/02/11 06:34:20;;;;;;;7.82;5.85;;;;;;;9.06;55.19;102137.00;2088085;28;20179;-68
2022/02/11 06:35:20;;;;;;;8.70;6.00;;;;;;;9.21;54.70;102146.19;2087486;28;20181;-68
2022/02/11 06:36:21;;;;;;;8.07;5.77;;;;;;;9.04;54.99;102114.50;2088238;28;20172;-66
2022/02/11 06:37:22;;;;;;;8.43;5.43;;;;;;;9.39;54.51;102147.88;2087591;28;20403;-68
2022/02/11 06:38:22;;;;;;;7.83;5.80;;;;;;;9.37;54.55;102146.69;2087716;28;20541;-66
2022/02/11 06:39:24;;;;;;;7.90;5.43;;;;;;;9.44;54.07;102146.72;2087800;28;20172;-67
2022/02/11 06:40:30;;;;;;;7.35;5.50;;;;;;;9.54;54.13;102157.06;2087874;28;20643;-67
2022/02/11 06:41:30;;;;;;;8.43;5.78;;;;;;;9.62;54.23;102147.56;2087516;28;20184;-67
2022/02/11 06:42:31;;;;;;;7.57;5.50;;;;;;;9.67;53.56;102152.75;2087926;28;20177;-67
2022/02/11 06:43:32;;;;;;;8.23;5.50;;;;;;;9.06;53.92;102067.06;2088319;28;20670;-67
2022/02/11 06:44:32;;;;;;;7.13;5.40;;;;;;;8.67;53.69;101986.69;2087731;28;20225;-67
2022/02/11 06:45:33;;;;;;;6.93;5.77;;;;;;;9.86;53.34;102152.44;2088520;28;20287;-68
2022/02/11 06:46:34;;;;;;;7.25;5.65;;;;;;;9.92;53.43;102151.66;2088539;28;20258;-68
2022/02/11 06:47:34;;;;;;;8.17;5.57;;;;;;;9.11;53.36;102000.34;2087883;28;20703;-68
2022/02/11 06:48:35;;;;;;;8.37;5.57;;;;;;;10.02;53.25;102150.91;2088501;28;20320;-68
2022/02/11 06:49:35;;;;;;;8.20;5.83;;;;;;;10.12;52.60;102143.81;2087922;28;20188;-68
2022/02/11 06:50:36;;;;;;;8.83;5.90;;;;;;;10.15;52.95;102152.13;2083930;28;20193;-67
2022/02/11 06:51:37;;;;;;;10.27;6.50;;;;;;;9.29;52.99;102015.03;2079524;28;20182;-68
2022/02/11 06:52:37;;;;;;;8.97;5.93;;;;;;;10.23;52.76;102152.94;2083640;28;20721;-69
2022/02/11 06:53:38;;;;;;;10.30;5.77;;;;;;;10.04;52.83;102115.31;2083426;28;20269;-68
2022/02/11 06:54:39;;;;;;;9.00;6.17;;;;;;;10.42;52.15;102135.94;2087966;28;20179;-70
2022/02/11 06:55:39;;;;;;;7.63;6.20;;;;;;;10.55;52.12;102151.78;2088811;28;20193;-68
2022/02/11 06:56:40;;;;;;;7.90;5.90;;;;;;;10.63;51.96;102153.41;2088945;28;20685;-70
2022/02/11 06:57:42;;;;;;;9.77;5.87;;;;;;;10.04;51.97;102065.47;2088322;28;20533;-71
2022/02/11 06:58:44;;;;;;;8.43;5.68;;;;;;;10.63;51.78;102152.59;2088569;28;20173;-72
2022/02/11 06:59:45;;;;;;;8.93;5.90;;;;;;;10.66;51.72;102144.25;2083550;28;20183;-72
2022/02/11 07:00:47;;;;;;;8.17;5.80;;;;;;;10.77;51.70;102149.81;2081261;28;20194;-72
2022/02/11 07:01:48;;;;;;;8.05;5.90;;;;;;;10.15;51.47;102046.88;2083925;28;20213;-72
2022/02/11 07:02:55;;;;;;;8.13;5.83;;;;;;;10.83;51.61;102131.59;2088837;28;20177;-70
2022/02/11 07:03:56;;;;;;;7.60;5.83;;;;;;;10.87;51.41;102141.47;2087733;28;20424;-68
2022/02/11 07:04:56;;;;;;;9.10;6.40;;;;;;;10.32;51.37;102059.94;2082279;28;20421;-70
2022/02/11 07:05:58;;;;;;;8.43;6.00;;;;;;;10.97;51.40;102139.91;2080822;28;20180;-71
2022/02/11 07:06:58;;;;;;;9.93;6.40;;;;;;;10.98;51.37;102141.47;2080760;28;20257;-71
2022/02/11 07:07:59;;;;;;;7.87;5.97;;;;;;;11.09;51.07;102137.50;2080377;28;20176;-70
2022/02/11 07:08:59;;;;;;;8.13;5.97;;;;;;;11.18;50.65;102137.84;2071022;28;20832;-70
2022/02/11 07:10:26;;;;;;;8.83;6.10;;;;;;;10.64;50.56;102057.94;2080604;28;20207;-69
2022/02/11 07:11:26;;;;;;;11.03;6.83;;;;;;;10.75;50.79;102072.56;2089128;28;20564;-68
2022/02/11 07:12:27;;;;;;;8.73;5.73;;;;;;;11.28;50.48;102136.25;2088642;28;20450;-67
2022/02/11 07:13:28;;;;;;;9.70;6.10;;;;;;;11.33;50.44;102139.41;2088831;28;20798;-67
2022/02/11 07:14:28;;;;;;;8.27;6.27;;;;;;;11.29;50.39;102121.19;2088697;28;20284;-68
2022/02/11 07:15:34;;;;;;;8.43;6.07;;;;;;;11.46;50.05;102137.78;2080958;28;20250;-66
2022/02/11 07:16:35;;;;;;;8.70;6.03;;;;;;;11.52;49.71;102133.41;2080756;28;20156;-66
2022/02/11 07:17:35;;;;;;;7.70;6.07;;;;;;;11.52;49.67;102130.63;2080275;28;20952;-66
2022/02/11 07:18:36;;;;;;;8.83;6.37;;;;;;;11.60;49.64;102131.41;2080976;28;20225;-67
2022/02/11 07:19:37;;;;;;;9.17;5.83;;;;;;;11.61;49.57;102128.25;2080296;28;20230;-67
2022/02/11 07:20:38;;;;;;;8.60;5.70;;;;;;;11.30;49.44;102056.16;2080582;28;20233;-71
2022/02/11 07:21:41;;;;;;;8.47;6.00;;;;;;;11.71;48.95;102105.19;2078747;28;20444;-70
2022/02/11 07:22:41;;;;;;;10.10;6.43;;;;;;;11.89;48.78;102132.88;2079672;28;20431;-67
2022/02/11 07:23:42;;;;;;;7.30;6.30;;;;;;;11.26;48.86;102031.22;2079850;28;20412;-67
2022/02/11 07:24:43;;;;;;;8.83;5.90;;;;;;;11.92;48.65;102141.19;2079847;28;20212;-67
2022/02/11 07:25:43;;;;;;;7.93;6.10;;;;;;;11.94;48.08;102124.13;2080164;28;20175;-66
2022/02/11 07:26:44;;;;;;;8.27;5.87;;;;;;;12.01;48.40;102129.63;2079717;28;20215;-69
2022/02/11 07:27:44;;;;;;;8.33;5.87;;;;;;;12.04;48.69;102131.59;2079300;28;20181;-67
2022/02/11 07:28:45;;;;;;;7.83;5.80;;;;;;;12.10;48.32;102130.75;2082682;28;20178;-68
2022/02/11 07:29:46;;;;;;;7.90;5.67;;;;;;;12.19;48.24;102135.88;2082475;28;20191;-67
2022/02/11 07:30:50;;;;;;;9.03;6.30;;;;;;;12.18;48.14;102123.16;2079985;28;20573;-67
2022/02/11 07:31:51;;;;;;;10.13;6.50;;;;;;;12.09;47.81;102106.16;2079044;28;20178;-68
2022/02/11 07:32:52;;;;;;;8.80;6.57;;;;;;;11.84;48.24;102064.63;2080240;28;20434;-68
2022/02/11 07:33:52;;;;;;;9.67;6.20;;;;;;;12.38;48.13;102138.91;2080551;28;20246;-68
2022/02/11 07:34:53;;;;;;;8.53;6.53;;;;;;;12.38;48.00;102135.31;2078684;28;20275;-69
2022/02/11 07:35:53;;;;;;;8.87;6.23;;;;;;;12.44;47.69;102139.25;2084915;28;20191;-68
2022/02/11 07:36:54;;;;;;;10.90;6.97;;;;;;;12.22;47.99;102108.06;2086524;28;20234;-68
2022/02/11 07:37:55;;;;;;;9.03;6.50;;;;;;;12.43;47.39;102137.69;2086986;28;20176;-66
2022/02/11 07:38:55;;;;;;;9.83;6.80;;;;;;;12.46;47.31;102137.63;2086321;28;20187;-69
2022/02/11 07:39:57;;;;;;;10.23;6.43;;;;;;;12.43;47.10;102124.56;2079738;28;20184;-68
2022/02/11 07:40:58;;;;;;;10.30;7.13;;;;;;;12.51;47.18;102144.78;2079071;28;20185;-69
2022/02/11 07:41:58;;;;;;;10.27;6.93;;;;;;;12.56;47.51;102138.78;2090129;28;21042;-70
2022/02/11 07:42:59;;;;;;;9.87;6.80;;;;;;;12.65;46.92;102130.78;2080579;28;20177;-67
2022/02/11 07:46:40;;;;;;;8.93;6.27;;;;;;;12.69;46.81;102126.75;2076336;28;20186;-67
2022/02/11 07:47:46;;;;;;;7.97;5.70;;;;;;;12.72;47.26;102130.69;2084181;28;20940;-65
2022/02/11 07:48:48;;;;;;;6.97;6.07;;;;;;;12.75;46.84;102132.66;2085078;28;20792;-67
2022/02/11 07:49:48;;;;;;;11.00;6.40;;;;;;;12.75;46.84;102125.09;2081616;28;20426;-67
2022/02/11 07:50:51;;;;;;;8.53;6.27;;;;;;;12.77;46.74;102125.50;2080562;28;20429;-68
2022/02/11 07:51:51;;;;;;;7.40;5.87;;;;;;;12.85;46.29;102128.97;2084655;28;20192;-67
2022/02/11 07:52:52;;;;;;;9.03;5.87;;;;;;;12.89;46.19;102124.97;2084766;28;20430;-68
2022/02/11 07:53:55;;;;;;;7.70;6.27;;;;;;;12.89;46.30;102126.94;2079638;28;20188;-68
2022/02/11 07:54:56;;;;;;;7.07;6.17;;;;;;;13.02;45.97;102133.63;2083682;28;20442;-68
2022/02/11 07:55:56;;;;;;;9.97;6.80;;;;;;;13.05;45.69;102128.03;2080201;28;20426;-67
2022/02/11 07:56:57;;;;;;;8.67;6.77;;;;;;;13.03;45.90;102124.06;2079572;28;20199;-68
2022/02/11 07:57:58;;;;;;;11.20;6.97;;;;;;;13.07;46.09;102122.81;2084644;28;20184;-68
2022/02/11 07:58:58;;;;;;;10.10;6.80;;;;;;;12.86;45.79;102081.25;2079969;28;20248;-68
2022/02/11 08:00:05;;;;;;;10.03;6.60;;;;;;;13.21;46.00;102127.47;2079825;28;20188;-68
2022/02/11 08:01:07;;;;;;;8.97;6.40;;;;;;;12.40;45.37;101985.59;2078789;28;20255;-68
2022/02/11 08:02:07;;;;;;;13.40;6.87;;;;;;;13.22;45.94;102113.09;2081330;28;20681;-68
2022/02/11 08:03:08;;;;;;;9.50;6.47;;;;;;;13.32;45.14;102112.19;2078675;28;20441;-67
2022/02/11 08:04:08;;;;;;;8.03;6.23;;;;;;;13.22;45.33;102101.22;2083286;28;20184;-67
2022/02/11 08:05:10;;;;;;;11.13;6.80;;;;;;;13.25;45.27;102109.50;2084385;28;20207;-67
2022/02/11 08:06:11;;;;;;;8.67;6.37;;;;;;;13.32;45.27;102117.78;2081848;28;20185;-67
2022/02/11 08:07:12;;;;;;;9.97;6.73;;;;;;;13.35;44.88;102124.50;2082262;28;20898;-67
2022/02/11 08:08:12;;;;;;;12.43;6.60;;;;;;;12.40;44.95;101955.00;2086491;28;20422;-67
2022/02/11 08:09:13;;;;;;;7.43;5.93;;;;;;;13.49;44.97;102124.34;2086912;28;20340;-67
2022/02/11 08:10:13;;;;;;;9.50;6.27;;;;;;;13.49;44.67;102118.78;2088268;28;20587;-67
2022/02/11 08:11:14;;;;;;;7.47;6.23;;;;;;;13.43;44.76;102112.88;2089328;28;20180;-67
2022/02/11 08:12:17;;;;;;;9.00;6.53;;;;;;;13.55;44.44;102117.09;2089483;28;20550;-68
2022/02/11 08:13:18;;;;;;;9.30;6.63;;;;;;;13.58;44.79;102119.84;2089396;28;20175;-67
2022/02/11 08:14:19;;;;;;;9.60;7.10;;;;;;;13.02;44.20;102011.19;2089002;28;20537;-68
2022/02/11 08:15:19;;;;;;;9.63;7.03;;;;;;;13.64;44.69;102117.41;2088108;28;20411;-67
2022/02/11 08:16:20;;;;;;;11.53;6.90;;;;;;;13.23;44.68;102041.53;2080388;28;20181;-67
2022/02/11 08:17:20;;;;;;;8.90;6.37;;;;;;;13.77;44.52;102121.19;2081212;28;20565;-67
2022/02/11 08:18:21;;;;;;;11.13;6.50;;;;;;;13.43;43.87;102064.75;2081838;28;20173;-67
2022/02/11 08:19:22;;;;;;;11.53;6.40;;;;;;;13.72;44.08;102111.31;2081477;28;20184;-67
2022/02/11 08:20:23;;;;;;;9.70;6.70;;;;;;;13.84;43.93;102113.53;2083055;28;20260;-67
2022/02/11 08:21:24;;;;;;;9.33;6.50;;;;;;;13.87;43.89;102123.03;2089175;28;20416;-68
2022/02/11 08:22:24;;;;;;;8.93;6.60;;;;;;;13.94;43.60;102117.41;2089536;28;20225;-67
2022/02/11 08:23:25;;;;;;;10.07;6.47;;;;;;;13.60;43.54;102058.16;2089545;28;20468;-67
2022/02/11 08:24:26;;;;;;;8.97;6.57;;;;;;;13.60;43.67;102055.38;2089915;28;20176;-67
2022/02/11 08:25:27;;;;;;;8.60;6.13;;;;;;;13.00;43.30;101953.16;2089754;28;20201;-67
